sensor_id;sensor_type;location;lat;lon;timestamp;pressure;altitude;pressure_sealevel;temperature;humidity
72294;BME280;60632;49.236;8.398;2023-02-01T00:01:10;101279.81;;;5.91;75.35
72294;BME280;60632;49.236;8.398;2023-02-01T00:04:10;101273.44;;;5.92;75.37
72294;BME280;60632;49.236;8.398;2023-02-01T00:07:11;101276.13;;;5.92;75.35
72294;BME280;60632;49.236;8.398;2023-02-01T00:10:11;101259.97;;;5.92;75.53
72294;BME280;60632;49.236;8.398;2023-02-01T00:13:12;101258.66;;;5.88;75.64
72294;BME280;60632;49.236;8.398;2023-02-01T00:16:13;101260.34;;;5.89;75.46
72294;BME280;60632;49.236;8.398;2023-02-01T00:19:16;101246.69;;;5.90;75.50
72294;BME280;60632;49.236;8.398;2023-02-01T00:22:16;101254.97;;;5.89;75.53
72294;BME280;60632;49.236;8.398;2023-02-01T00:25:16;101242.50;;;5.88;75.55
72294;BME280;60632;49.236;8.398;2023-02-01T00:28:17;101255.78;;;5.89;75.58
72294;BME280;60632;49.236;8.398;2023-02-01T00:31:17;101244.19;;;5.89;75.63
72294;BME280;60632;49.236;8.398;2023-02-01T00:34:18;101224.00;;;5.93;75.54
72294;BME280;60632;49.236;8.398;2023-02-01T00:37:19;101224.00;;;5.93;75.55
72294;BME280;60632;49.236;8.398;2023-02-01T00:40:19;101206.16;;;5.92;75.58
72294;BME280;60632;49.236;8.398;2023-02-01T00:43:19;101217.28;;;5.89;75.49
72294;BME280;60632;49.236;8.398;2023-02-01T00:46:20;101204.22;;;5.85;75.89
72294;BME280;60632;49.236;8.398;2023-02-01T00:49:21;101234.63;;;5.86;75.78
72294;BME280;60632;49.236;8.398;2023-02-01T00:52:21;101230.06;;;5.87;75.73
72294;BME280;60632;49.236;8.398;2023-02-01T00:55:22;101237.78;;;5.90;75.65
72294;BME280;60632;49.236;8.398;2023-02-01T00:58:22;101240.44;;;5.98;75.45
72294;BME280;60632;49.236;8.398;2023-02-01T01:01:26;101241.09;;;6.00;75.30
72294;BME280;60632;49.236;8.398;2023-02-01T01:04:27;101246.47;;;6.00;75.34
72294;BME280;60632;49.236;8.398;2023-02-01T01:07:27;101258.94;;;6.01;75.30
72294;BME280;60632;49.236;8.398;2023-02-01T01:10:28;101252.69;;;6.00;75.20
72294;BME280;60632;49.236;8.398;2023-02-01T01:13:28;101245.06;;;6.04;75.10
72294;BME280;60632;49.236;8.398;2023-02-01T01:16:29;101236.84;;;6.05;75.07
72294;BME280;60632;49.236;8.398;2023-02-01T01:19:30;101224.94;;;6.00;75.18
72294;BME280;60632;49.236;8.398;2023-02-01T01:22:30;101219.94;;;5.97;75.40
72294;BME280;60632;49.236;8.398;2023-02-01T01:25:30;101214.91;;;5.94;75.43
72294;BME280;60632;49.236;8.398;2023-02-01T01:28:31;101225.66;;;5.94;75.59
72294;BME280;60632;49.236;8.398;2023-02-01T01:31:31;101211.56;;;5.92;75.59
72294;BME280;60632;49.236;8.398;2023-02-01T01:34:31;101214.41;;;5.90;75.69
72294;BME280;60632;49.236;8.398;2023-02-01T01:37:32;101203.84;;;5.89;75.65
72294;BME280;60632;49.236;8.398;2023-02-01T01:40:32;101203.19;;;5.87;75.68
72294;BME280;60632;49.236;8.398;2023-02-01T01:46:51;101174.63;;;5.85;76.10
72294;BME280;60632;49.236;8.398;2023-02-01T01:49:51;101181.66;;;5.87;75.81
72294;BME280;60632;49.236;8.398;2023-02-01T01:52:52;101164.50;;;5.88;75.87
72294;BME280;60632;49.236;8.398;2023-02-01T01:55:55;101176.09;;;5.88;76.04
72294;BME280;60632;49.236;8.398;2023-02-01T01:58:56;101181.66;;;5.87;75.92
72294;BME280;60632;49.236;8.398;2023-02-01T02:01:56;101189.56;;;5.88;75.93
72294;BME280;60632;49.236;8.398;2023-02-01T02:04:56;101173.41;;;5.88;75.78
72294;BME280;60632;49.236;8.398;2023-02-01T02:07:58;101163.50;;;5.89;75.93
72294;BME280;60632;49.236;8.398;2023-02-01T02:10:59;101159.78;;;5.90;75.78
72294;BME280;60632;49.236;8.398;2023-02-01T02:14:00;101141.97;;;5.89;75.90
72294;BME280;60632;49.236;8.398;2023-02-01T02:17:24;101154.38;;;5.90;75.95
72294;BME280;60632;49.236;8.398;2023-02-01T02:20:37;101172.19;;;5.91;75.88
72294;BME280;60632;49.236;8.398;2023-02-01T02:23:57;101163.13;;;5.92;76.01
72294;BME280;60632;49.236;8.398;2023-02-01T02:36:27;101214.28;;;6.06;75.53
72294;BME280;60632;49.236;8.398;2023-02-01T02:42:38;101227.94;;;6.05;75.54
72294;BME280;60632;49.236;8.398;2023-02-01T02:49:42;101209.72;;;6.07;75.50
72294;BME280;60632;49.236;8.398;2023-02-01T02:53:16;101192.84;;;6.13;75.47
72294;BME280;60632;49.236;8.398;2023-02-01T02:56:37;101192.03;;;6.13;75.35
72294;BME280;60632;49.236;8.398;2023-02-01T02:59:57;101159.63;;;6.06;75.59
72294;BME280;60632;49.236;8.398;2023-02-01T03:03:17;101133.47;;;6.00;75.65
72294;BME280;60632;49.236;8.398;2023-02-01T03:06:36;101118.06;;;5.94;76.04
72294;BME280;60632;49.236;8.398;2023-02-01T03:09:37;101133.38;;;5.93;75.99
72294;BME280;60632;49.236;8.398;2023-02-01T03:12:39;101143.97;;;5.95;75.73
72294;BME280;60632;49.236;8.398;2023-02-01T03:19:17;101137.19;;;5.99;75.83
72294;BME280;60632;49.236;8.398;2023-02-01T03:22:26;101144.06;;;6.01;75.87
72294;BME280;60632;49.236;8.398;2023-02-01T03:25:28;101150.53;;;6.07;75.68
72294;BME280;60632;49.236;8.398;2023-02-01T03:28:31;101162.63;;;6.11;75.53
72294;BME280;60632;49.236;8.398;2023-02-01T03:31:32;101168.94;;;6.18;75.38
72294;BME280;60632;49.236;8.398;2023-02-01T03:34:32;101157.41;;;6.24;75.14
72294;BME280;60632;49.236;8.398;2023-02-01T03:37:33;101152.50;;;6.28;75.04
72294;BME280;60632;49.236;8.398;2023-02-01T03:40:34;101147.28;;;6.26;75.09
72294;BME280;60632;49.236;8.398;2023-02-01T03:43:42;101135.06;;;6.24;75.20
72294;BME280;60632;49.236;8.398;2023-02-01T03:50:19;101148.31;;;6.25;75.29
72294;BME280;60632;49.236;8.398;2023-02-01T03:53:14;101152.66;;;6.26;75.45
72294;BME280;60632;49.236;8.398;2023-02-01T03:56:17;101143.97;;;6.24;75.39
72294;BME280;60632;49.236;8.398;2023-02-01T03:59:18;101157.22;;;6.26;75.54
72294;BME280;60632;49.236;8.398;2023-02-01T04:02:18;101171.63;;;6.33;75.03
72294;BME280;60632;49.236;8.398;2023-02-01T04:05:19;101163.34;;;6.35;75.08
72294;BME280;60632;49.236;8.398;2023-02-01T04:08:20;101169.94;;;6.32;75.21
72294;BME280;60632;49.236;8.398;2023-02-01T04:11:20;101157.06;;;6.27;75.36
72294;BME280;60632;49.236;8.398;2023-02-01T04:14:21;101149.16;;;6.26;75.46
72294;BME280;60632;49.236;8.398;2023-02-01T04:17:21;101151.22;;;6.24;75.38
72294;BME280;60632;49.236;8.398;2023-02-01T04:20:21;101144.34;;;6.21;75.35
72294;BME280;60632;49.236;8.398;2023-02-01T04:23:21;101122.13;;;6.19;75.53
72294;BME280;60632;49.236;8.398;2023-02-01T04:26:22;101127.53;;;6.19;75.36
72294;BME280;60632;49.236;8.398;2023-02-01T04:29:22;101115.47;;;6.15;75.38
72294;BME280;60632;49.236;8.398;2023-02-01T04:32:22;101122.88;;;6.13;75.51
72294;BME280;60632;49.236;8.398;2023-02-01T04:35:23;101137.38;;;6.12;75.70
72294;BME280;60632;49.236;8.398;2023-02-01T04:38:23;101135.03;;;6.09;75.73
72294;BME280;60632;49.236;8.398;2023-02-01T04:41:23;101136.06;;;6.08;75.61
72294;BME280;60632;49.236;8.398;2023-02-01T04:44:24;101144.16;;;6.08;75.68
72294;BME280;60632;49.236;8.398;2023-02-01T04:47:24;101136.44;;;6.05;75.71
72294;BME280;60632;49.236;8.398;2023-02-01T04:50:24;101138.84;;;6.00;76.00
72294;BME280;60632;49.236;8.398;2023-02-01T04:53:24;101141.53;;;6.00;75.77
72294;BME280;60632;49.236;8.398;2023-02-01T04:56:25;101123.06;;;5.97;75.89
72294;BME280;60632;49.236;8.398;2023-02-01T04:59:26;101142.09;;;5.95;75.97
72294;BME280;60632;49.236;8.398;2023-02-01T05:02:26;101149.13;;;5.96;75.88
72294;BME280;60632;49.236;8.398;2023-02-01T05:05:26;101160.09;;;5.95;75.97
72294;BME280;60632;49.236;8.398;2023-02-01T05:08:27;101157.75;;;5.92;76.07
72294;BME280;60632;49.236;8.398;2023-02-01T05:11:28;101156.91;;;5.91;76.05
72294;BME280;60632;49.236;8.398;2023-02-01T05:14:47;101189.19;;;5.91;76.13
72294;BME280;60632;49.236;8.398;2023-02-01T05:17:49;101188.84;;;5.94;76.07
72294;BME280;60632;49.236;8.398;2023-02-01T05:20:49;101187.63;;;5.97;75.93
72294;BME280;60632;49.236;8.398;2023-02-01T05:23:49;101175.22;;;5.96;76.04
72294;BME280;60632;49.236;8.398;2023-02-01T05:27:08;101176.88;;;5.97;76.02
72294;BME280;60632;49.236;8.398;2023-02-01T05:30:08;101174.84;;;5.99;76.07
72294;BME280;60632;49.236;8.398;2023-02-01T05:33:09;101169.09;;;6.02;76.02
72294;BME280;60632;49.236;8.398;2023-02-01T05:36:09;101169.09;;;6.02;75.99
72294;BME280;60632;49.236;8.398;2023-02-01T05:39:10;101174.84;;;5.99;75.89
72294;BME280;60632;49.236;8.398;2023-02-01T05:42:10;101171.13;;;6.00;75.86
72294;BME280;60632;49.236;8.398;2023-02-01T05:45:11;101171.97;;;6.00;75.95
72294;BME280;60632;49.236;8.398;2023-02-01T05:48:11;101170.75;;;6.03;75.82
72294;BME280;60632;49.236;8.398;2023-02-01T05:51:11;101184.41;;;6.01;75.96
72294;BME280;60632;49.236;8.398;2023-02-01T05:54:12;101167.44;;;6.01;75.96
72294;BME280;60632;49.236;8.398;2023-02-01T05:57:12;101172.41;;;6.04;76.01
72294;BME280;60632;49.236;8.398;2023-02-01T06:00:13;101162.53;;;6.04;75.97
72294;BME280;60632;49.236;8.398;2023-02-01T06:03:13;101160.56;;;5.98;76.01
72294;BME280;60632;49.236;8.398;2023-02-01T06:06:13;101149.97;;;5.97;76.17
72294;BME280;60632;49.236;8.398;2023-02-01T06:09:13;101167.13;;;5.96;76.39
72294;BME280;60632;49.236;8.398;2023-02-01T06:12:14;101153.69;;;5.96;76.21
72294;BME280;60632;49.236;8.398;2023-02-01T06:15:14;101140.25;;;5.96;76.29
72294;BME280;60632;49.236;8.398;2023-02-01T06:18:18;101162.78;;;5.95;76.38
72294;BME280;60632;49.236;8.398;2023-02-01T06:21:18;101151.16;;;5.94;76.31
72294;BME280;60632;49.236;8.398;2023-02-01T06:24:23;101159.44;;;5.93;76.42
72294;BME280;60632;49.236;8.398;2023-02-01T06:27:24;101168.50;;;5.92;76.53
72294;BME280;60632;49.236;8.398;2023-02-01T06:30:24;101170.53;;;5.90;76.44
72294;BME280;60632;49.236;8.398;2023-02-01T06:33:24;101167.19;;;5.88;76.53
72294;BME280;60632;49.236;8.398;2023-02-01T06:36:27;101178.31;;;5.84;76.64
72294;BME280;60632;49.236;8.398;2023-02-01T06:39:27;101178.31;;;5.84;76.61
72294;BME280;60632;49.236;8.398;2023-02-01T06:42:28;101189.56;;;5.88;76.48
72294;BME280;60632;49.236;8.398;2023-02-01T06:45:28;101180.97;;;5.93;76.38
72294;BME280;60632;49.236;8.398;2023-02-01T06:48:29;101180.41;;;5.97;76.28
72294;BME280;60632;49.236;8.398;2023-02-01T06:51:29;101181.25;;;5.98;76.42
72294;BME280;60632;49.236;8.398;2023-02-01T06:54:30;101188.97;;;6.01;76.26
72294;BME280;60632;49.236;8.398;2023-02-01T06:57:33;101187.56;;;6.05;76.10
72294;BME280;60632;49.236;8.398;2023-02-01T07:00:35;101182.81;;;6.07;76.21
72294;BME280;60632;49.236;8.398;2023-02-01T07:03:36;101180.50;;;6.04;76.01
72294;BME280;60632;49.236;8.398;2023-02-01T07:06:37;101186.91;;;6.03;76.26
72294;BME280;60632;49.236;8.398;2023-02-01T07:09:37;101193.31;;;6.02;76.24
72294;BME280;60632;49.236;8.398;2023-02-01T07:12:37;101195.66;;;6.05;76.28
72294;BME280;60632;49.236;8.398;2023-02-01T07:15:38;101198.97;;;6.07;76.14
72294;BME280;60632;49.236;8.398;2023-02-01T07:18:38;101196.78;;;6.11;76.05
72294;BME280;60632;49.236;8.398;2023-02-01T07:21:38;101205.31;;;6.14;75.95
72294;BME280;60632;49.236;8.398;2023-02-01T07:24:39;101206.59;;;6.18;75.92
72294;BME280;60632;49.236;8.398;2023-02-01T07:27:39;101217.00;;;6.21;75.90
72294;BME280;60632;49.236;8.398;2023-02-01T07:30:39;101205.22;;;6.22;75.99
72294;BME280;60632;49.236;8.398;2023-02-01T07:33:39;101206.25;;;6.21;75.89
72294;BME280;60632;49.236;8.398;2023-02-01T07:36:40;101203.53;;;6.21;75.90
72294;BME280;60632;49.236;8.398;2023-02-01T07:39:43;101193.81;;;6.20;76.00
72294;BME280;60632;49.236;8.398;2023-02-01T07:42:46;101189.72;;;6.24;76.00
72294;BME280;60632;49.236;8.398;2023-02-01T07:45:51;101180.63;;;6.25;76.01
72294;BME280;60632;49.236;8.398;2023-02-01T07:48:59;101193.25;;;6.25;75.87
72294;BME280;60632;49.236;8.398;2023-02-01T07:52:20;101192.22;;;6.26;76.04
72294;BME280;60632;49.236;8.398;2023-02-01T07:55:21;101191.00;;;6.28;76.04
72294;BME280;60632;49.236;8.398;2023-02-01T07:58:25;101187.94;;;6.31;75.97
72294;BME280;60632;49.236;8.398;2023-02-01T08:01:26;101200.84;;;6.36;76.02
72294;BME280;60632;49.236;8.398;2023-02-01T08:04:41;101198.66;;;6.40;76.02
72294;BME280;60632;49.236;8.398;2023-02-01T08:07:51;101207.81;;;6.45;75.88
72294;BME280;60632;49.236;8.398;2023-02-01T08:11:03;101221.38;;;6.52;75.68
72294;BME280;60632;49.236;8.398;2023-02-01T08:14:04;101230.41;;;6.59;75.50
72294;BME280;60632;49.236;8.398;2023-02-01T08:17:05;101235.00;;;6.65;75.44
72294;BME280;60632;49.236;8.398;2023-02-01T08:20:05;101247.09;;;6.69;75.38
72294;BME280;60632;49.236;8.398;2023-02-01T08:23:07;101256.69;;;6.72;75.44
72294;BME280;60632;49.236;8.398;2023-02-01T08:26:10;101260.84;;;6.74;75.29
72294;BME280;60632;49.236;8.398;2023-02-01T08:29:13;101266.22;;;6.74;75.32
72294;BME280;60632;49.236;8.398;2023-02-01T08:32:14;101264.19;;;6.76;75.25
72294;BME280;60632;49.236;8.398;2023-02-01T08:35:14;101265.84;;;6.77;75.26
72294;BME280;60632;49.236;8.398;2023-02-01T08:38:14;101266.13;;;6.83;75.28
72294;BME280;60632;49.236;8.398;2023-02-01T08:41:16;101268.53;;;6.92;74.98
72294;BME280;60632;49.236;8.398;2023-02-01T08:44:17;101272.34;;;6.98;74.87
72294;BME280;60632;49.236;8.398;2023-02-01T08:47:17;101269.84;;;6.96;74.92
72294;BME280;60632;49.236;8.398;2023-02-01T08:50:18;101275.44;;;6.95;75.02
72294;BME280;60632;49.236;8.398;2023-02-01T08:53:19;101266.69;;;6.93;75.07
72294;BME280;60632;49.236;8.398;2023-02-01T08:56:19;101262.78;;;6.95;75.18
72294;BME280;60632;49.236;8.398;2023-02-01T08:59:19;101266.09;;;6.97;75.04
72294;BME280;60632;49.236;8.398;2023-02-01T09:02:20;101262.41;;;6.98;75.09
72294;BME280;60632;49.236;8.398;2023-02-01T09:05:20;101265.72;;;7.00;74.99
72294;BME280;60632;49.236;8.398;2023-02-01T09:08:22;101262.88;;;7.02;74.90
72294;BME280;60632;49.236;8.398;2023-02-01T09:11:22;101265.81;;;7.07;74.80
72294;BME280;60632;49.236;8.398;2023-02-01T09:14:22;101269.53;;;7.06;74.80
72294;BME280;60632;49.236;8.398;2023-02-01T09:17:23;101266.84;;;7.06;74.78
72294;BME280;60632;49.236;8.398;2023-02-01T09:20:23;101261.66;;;7.05;74.84
72294;BME280;60632;49.236;8.398;2023-02-01T09:23:24;101278.38;;;7.00;75.01
72294;BME280;60632;49.236;8.398;2023-02-01T09:26:24;101283.59;;;7.01;74.99
72294;BME280;60632;49.236;8.398;2023-02-01T09:29:25;101282.75;;;7.01;74.83
72294;BME280;60632;49.236;8.398;2023-02-01T09:32:25;101287.13;;;7.02;74.82
72294;BME280;60632;49.236;8.398;2023-02-01T09:35:26;101295.22;;;7.02;74.87
72294;BME280;60632;49.236;8.398;2023-02-01T09:38:27;101291.94;;;7.07;74.83
72294;BME280;60632;49.236;8.398;2023-02-01T09:47:54;101301.69;;;7.22;74.20
72294;BME280;60632;49.236;8.398;2023-02-01T09:50:56;101317.94;;;7.29;74.09
72294;BME280;60632;49.236;8.398;2023-02-01T09:57:18;101326.38;;;7.41;73.73
72294;BME280;60632;49.236;8.398;2023-02-01T10:00:24;101346.91;;;7.42;73.55
72294;BME280;60632;49.236;8.398;2023-02-01T10:03:28;101336.50;;;7.39;73.46
72294;BME280;60632;49.236;8.398;2023-02-01T10:16:04;101333.72;;;7.32;73.42
72294;BME280;60632;49.236;8.398;2023-02-01T10:25:31;101351.59;;;7.33;73.30
72294;BME280;60632;49.236;8.398;2023-02-01T10:28:36;101359.22;;;7.30;73.43
72294;BME280;60632;49.236;8.398;2023-02-01T10:31:38;101353.81;;;7.30;73.33
72294;BME280;60632;49.236;8.398;2023-02-01T10:34:38;101349.47;;;7.29;73.42
72294;BME280;60632;49.236;8.398;2023-02-01T10:37:40;101347.78;;;7.28;73.29
72294;BME280;60632;49.236;8.398;2023-02-01T10:40:41;101341.56;;;7.27;73.23
72294;BME280;60632;49.236;8.398;2023-02-01T10:43:42;101342.03;;;7.31;73.17
72294;BME280;60632;49.236;8.398;2023-02-01T10:46:43;101349.09;;;7.32;73.07
72294;BME280;60632;49.236;8.398;2023-02-01T10:49:49;101344.97;;;7.36;72.98
72294;BME280;60632;49.236;8.398;2023-02-01T10:53:00;101340.03;;;7.39;72.88
72294;BME280;60632;49.236;8.398;2023-02-01T10:56:06;101333.44;;;7.42;72.75
72294;BME280;60632;49.236;8.398;2023-02-01T10:59:13;101323.94;;;7.46;72.74
72294;BME280;60632;49.236;8.398;2023-02-01T11:05:26;101304.94;;;7.54;72.36
72294;BME280;60632;49.236;8.398;2023-02-01T11:08:26;101296.88;;;7.54;72.48
72294;BME280;60632;49.236;8.398;2023-02-01T11:11:27;101289.97;;;7.52;72.29
72294;BME280;60632;49.236;8.398;2023-02-01T11:14:32;101280.88;;;7.53;72.47
72294;BME280;60632;49.236;8.398;2023-02-01T11:17:35;101276.78;;;7.57;72.40
72294;BME280;60632;49.236;8.398;2023-02-01T11:20:39;101261.41;;;7.57;72.08
72294;BME280;60632;49.236;8.398;2023-02-01T11:23:41;101254.16;;;7.58;72.06
72294;BME280;60632;49.236;8.398;2023-02-01T11:26:42;101258.13;;;7.62;72.00
72294;BME280;60632;49.236;8.398;2023-02-01T11:29:45;101256.34;;;7.69;71.74
72294;BME280;60632;49.236;8.398;2023-02-01T11:32:46;101253.44;;;7.70;71.75
72294;BME280;60632;49.236;8.398;2023-02-01T11:35:47;101253.91;;;7.74;71.55
72294;BME280;60632;49.236;8.398;2023-02-01T11:39:07;101246.25;;;7.78;71.39
72294;BME280;60632;49.236;8.398;2023-02-01T11:42:14;101254.34;;;7.78;71.42
72294;BME280;60632;49.236;8.398;2023-02-01T11:45:28;101245.84;;;7.81;71.55
72294;BME280;60632;49.236;8.398;2023-02-01T11:48:30;101246.75;;;7.88;71.43
72294;BME280;60632;49.236;8.398;2023-02-01T11:54:41;101259.22;;;7.89;71.21
72294;BME280;60632;49.236;8.398;2023-02-01T12:11:04;101247.22;;;7.91;71.20
72294;BME280;60632;49.236;8.398;2023-02-01T12:17:29;101245.59;;;7.97;71.17
72294;BME280;60632;49.236;8.398;2023-02-01T12:20:36;101247.28;;;7.98;71.03
72294;BME280;60632;49.236;8.398;2023-02-01T12:27:02;101262.03;;;8.02;70.96
72294;BME280;60632;49.236;8.398;2023-02-01T12:33:21;101259.34;;;8.02;70.98
72294;BME280;60632;49.236;8.398;2023-02-01T12:36:41;101236.91;;;8.02;70.90
72294;BME280;60632;49.236;8.398;2023-02-01T12:46:12;101240.44;;;8.02;70.70
72294;BME280;60632;49.236;8.398;2023-02-01T12:49:19;101243.97;;;8.03;70.67
72294;BME280;60632;49.236;8.398;2023-02-01T12:52:43;101243.16;;;8.02;70.72
72294;BME280;60632;49.236;8.398;2023-02-01T12:55:47;101236.91;;;8.02;70.45
72294;BME280;60632;49.236;8.398;2023-02-01T12:58:50;101235.00;;;7.95;70.45
72294;BME280;60632;49.236;8.398;2023-02-01T13:01:54;101245.59;;;7.97;70.49
72294;BME280;60632;49.236;8.398;2023-02-01T13:05:04;101227.94;;;7.94;70.48
72294;BME280;60632;49.236;8.398;2023-02-01T13:08:13;101226.91;;;7.95;70.48
72294;BME280;60632;49.236;8.398;2023-02-01T13:11:23;101216.09;;;7.95;70.51
72294;BME280;60632;49.236;8.398;2023-02-01T13:17:34;101204.09;;;7.98;70.23
72294;BME280;60632;49.236;8.398;2023-02-01T13:20:37;101193.72;;;8.02;70.28
72294;BME280;60632;49.236;8.398;2023-02-01T13:23:39;101187.09;;;8.04;70.11
72294;BME280;60632;49.236;8.398;2023-02-01T13:26:40;101173.00;;;8.09;69.98
72294;BME280;60632;49.236;8.398;2023-02-01T13:29:47;101174.28;;;8.13;69.94
72294;BME280;60632;49.236;8.398;2023-02-01T13:36:20;101167.91;;;8.21;69.65
72294;BME280;60632;49.236;8.398;2023-02-01T13:42:24;101161.50;;;8.28;69.59
72294;BME280;60632;49.236;8.398;2023-02-01T13:45:33;101169.31;;;8.16;69.63
72294;BME280;60632;49.236;8.398;2023-02-01T13:51:42;101174.44;;;8.05;69.38
72294;BME280;60632;49.236;8.398;2023-02-01T13:54:43;101168.00;;;8.06;69.46
72294;BME280;60632;49.236;8.398;2023-02-01T13:57:43;101170.47;;;8.07;69.18
72294;BME280;60632;49.236;8.398;2023-02-01T14:00:45;101173.84;;;8.09;69.22
72294;BME280;60632;49.236;8.398;2023-02-01T14:03:55;101166.38;;;8.11;69.08
72294;BME280;60632;49.236;8.398;2023-02-01T14:06:55;101183.00;;;8.15;69.01
72294;BME280;60632;49.236;8.398;2023-02-01T14:09:56;101178.66;;;8.14;69.08
72294;BME280;60632;49.236;8.398;2023-02-01T14:13:39;101173.03;;;8.15;69.03
72294;BME280;60632;49.236;8.398;2023-02-01T14:16:20;101159.16;;;8.18;69.04
72294;BME280;60632;49.236;8.398;2023-02-01T14:19:24;101165.38;;;8.19;68.84
72294;BME280;60632;49.236;8.398;2023-02-01T14:22:32;101188.41;;;8.15;68.83
72294;BME280;60632;49.236;8.398;2023-02-01T14:25:33;101174.28;;;8.13;68.95
72294;BME280;60632;49.236;8.398;2023-02-01T14:28:35;101167.00;;;8.13;68.82
72294;BME280;60632;49.236;8.398;2023-02-01T14:31:42;101168.44;;;8.09;68.83
72294;BME280;60632;49.236;8.398;2023-02-01T14:37:46;101173.03;;;8.15;68.59
72294;BME280;60632;49.236;8.398;2023-02-01T14:40:51;101181.41;;;8.21;68.49
72294;BME280;60632;49.236;8.398;2023-02-01T14:53:33;101173.22;;;8.42;68.35
72294;BME280;60632;49.236;8.398;2023-02-01T14:56:34;101170.34;;;8.44;68.20
72294;BME280;60632;49.236;8.398;2023-02-01T14:59:34;101183.63;;;8.45;68.29
72294;BME280;60632;49.236;8.398;2023-02-01T15:02:37;101185.72;;;8.43;68.26
72294;BME280;60632;49.236;8.398;2023-02-01T15:05:38;101195.66;;;8.43;68.30
72294;BME280;60632;49.236;8.398;2023-02-01T15:08:39;101199.84;;;8.45;68.13
72294;BME280;60632;49.236;8.398;2023-02-01T15:18:16;101196.91;;;8.40;68.22
72294;BME280;60632;49.236;8.398;2023-02-01T15:21:19;101208.09;;;8.37;68.23
72294;BME280;60632;49.236;8.398;2023-02-01T15:24:23;101217.19;;;8.36;68.16
72294;BME280;60632;49.236;8.398;2023-02-01T15:27:24;101211.19;;;8.34;68.22
72294;BME280;60632;49.236;8.398;2023-02-01T15:30:29;101199.72;;;8.32;68.21
72294;BME280;60632;49.236;8.398;2023-02-01T15:33:30;101216.59;;;8.34;68.15
72294;BME280;60632;49.236;8.398;2023-02-01T15:36:31;101201.38;;;8.33;68.21
72294;BME280;60632;49.236;8.398;2023-02-01T15:39:32;101200.78;;;8.31;68.21
72294;BME280;60632;49.236;8.398;2023-02-01T15:42:34;101196.78;;;8.27;68.17
72294;BME280;60632;49.236;8.398;2023-02-01T15:45:35;101185.16;;;8.26;68.13
72294;BME280;60632;49.236;8.398;2023-02-01T15:48:37;101185.53;;;8.23;68.16
72294;BME280;60632;49.236;8.398;2023-02-01T15:51:38;101179.13;;;8.24;68.11
72294;BME280;60632;49.236;8.398;2023-02-01T15:54:46;101161.88;;;8.25;68.01
72294;BME280;60632;49.236;8.398;2023-02-01T15:57:48;101183.72;;;8.24;67.91
72294;BME280;60632;49.236;8.398;2023-02-01T16:00:50;101187.22;;;8.24;67.91
72294;BME280;60632;49.236;8.398;2023-02-01T16:04:14;101199.25;;;8.22;68.02
72294;BME280;60632;49.236;8.398;2023-02-01T16:07:29;101195.72;;;8.21;67.97
72294;BME280;60632;49.236;8.398;2023-02-01T16:10:30;101197.59;;;8.21;67.80
72294;BME280;60632;49.236;8.398;2023-02-01T16:13:30;101202.59;;;8.24;67.79
72294;BME280;60632;49.236;8.398;2023-02-01T16:16:31;101203.44;;;8.24;67.78
72294;BME280;60632;49.236;8.398;2023-02-01T16:19:31;101206.31;;;8.23;67.90
72294;BME280;60632;49.236;8.398;2023-02-01T16:22:31;101213.19;;;8.25;67.82
72294;BME280;60632;49.236;8.398;2023-02-01T16:25:32;101196.78;;;8.27;67.76
72294;BME280;60632;49.236;8.398;2023-02-01T16:28:32;101205.94;;;8.26;67.85
72294;BME280;60632;49.236;8.398;2023-02-01T16:31:36;101197.59;;;8.21;67.60
72294;BME280;60632;49.236;8.398;2023-02-01T16:34:38;101196.75;;;8.20;67.70
72294;BME280;60632;49.236;8.398;2023-02-01T16:37:38;101207.94;;;8.17;67.71
72294;BME280;60632;49.236;8.398;2023-02-01T16:40:39;101206.66;;;8.13;67.79
72294;BME280;60632;49.236;8.398;2023-02-01T16:43:39;101213.94;;;8.12;67.81
72294;BME280;60632;49.236;8.398;2023-02-01T16:46:41;101222.88;;;8.13;67.80
72294;BME280;60632;49.236;8.398;2023-02-01T16:49:43;101223.69;;;8.13;67.62
72294;BME280;60632;49.236;8.398;2023-02-01T16:52:44;101227.44;;;8.12;67.82
72294;BME280;60632;49.236;8.398;2023-02-01T16:55:44;101214.97;;;8.11;67.73
72294;BME280;60632;49.236;8.398;2023-02-01T16:58:46;101199.16;;;8.08;67.77
72294;BME280;60632;49.236;8.398;2023-02-01T17:01:47;101220.78;;;8.08;67.68
72294;BME280;60632;49.236;8.398;2023-02-01T17:04:47;101212.41;;;8.03;67.63
72294;BME280;60632;49.236;8.398;2023-02-01T17:07:48;101204.25;;;7.97;67.87
72294;BME280;60632;49.236;8.398;2023-02-01T17:10:49;101202.78;;;7.94;67.83
72294;BME280;60632;49.236;8.398;2023-02-01T17:13:49;101205.69;;;7.92;67.82
72294;BME280;60632;49.236;8.398;2023-02-01T17:16:49;101191.75;;;7.89;67.88
72294;BME280;60632;49.236;8.398;2023-02-01T17:19:51;101220.78;;;7.87;67.80
72294;BME280;60632;49.236;8.398;2023-02-01T17:22:55;101201.91;;;7.87;67.81
72294;BME280;60632;49.236;8.398;2023-02-01T17:25:56;101183.66;;;7.89;67.66
72294;BME280;60632;49.236;8.398;2023-02-01T17:28:56;101181.34;;;7.86;67.68
72294;BME280;60632;49.236;8.398;2023-02-01T17:31:57;101194.84;;;7.86;67.52
72294;BME280;60632;49.236;8.398;2023-02-01T17:34:59;101178.00;;;7.84;67.64
72294;BME280;60632;49.236;8.398;2023-02-01T17:38:00;101175.31;;;7.84;67.61
72294;BME280;60632;49.236;8.398;2023-02-01T17:41:00;101194.78;;;7.79;67.51
72294;BME280;60632;49.236;8.398;2023-02-01T17:44:00;101182.31;;;7.78;67.57
72294;BME280;60632;49.236;8.398;2023-02-01T17:47:01;101172.13;;;7.74;67.64
72294;BME280;60632;49.236;8.398;2023-02-01T17:50:01;101177.25;;;7.68;67.65
72294;BME280;60632;49.236;8.398;2023-02-01T17:53:02;101189.84;;;7.61;67.65
72294;BME280;60632;49.236;8.398;2023-02-01T17:56:05;101178.44;;;7.59;67.75
72294;BME280;60632;49.236;8.398;2023-02-01T17:59:05;101193.16;;;7.57;67.70
72294;BME280;60632;49.236;8.398;2023-02-01T18:02:13;101181.69;;;7.55;67.80
72294;BME280;60632;49.236;8.398;2023-02-01T18:05:18;101197.88;;;7.55;67.63
72294;BME280;60632;49.236;8.398;2023-02-01T18:08:20;101191.66;;;7.54;67.61